Weather at Holt Airport

Public forecast

Using degrees Celsius for public forecast. Weather courtesy of forecast.io.

Closest aviation weather report (METAR) to Holt Airport

Closest report is Ísafjörður Airport, 7.9 nm (14.7 km) ENE. Retrieved 2020/12/04 10:00 UTC (55 minutes ago):

BIIS 041000Z 03018KT 9999 OVC035 M03/M11 Q1034 R88/790533

Closest aviation forecast (TAF) to Holt Airport

Closest forecast is Reykjavik Airport, 119.3 nm (221.0 km) SSE. Retrieved 2020/12/04 09:43 UTC (1 hour ago):

TAF BIRK 040739Z 0409/0509 36022G35KT 9999 FEW040 TXM04/0414Z TNM08/0503Z BECMG 0412/0414 02015G25KT BECMG 0422/0500 09007KT